sensor_id;sensor_type;location;lat;lon;timestamp;P1;durP1;ratioP1;P2;durP2;ratioP2
21571;SDS011;10947;50.834;15.782;2022-12-10T00:01:26;51.10;;;22.33;;
21571;SDS011;10947;50.834;15.782;2022-12-10T00:03:54;84.50;;;34.73;;
21571;SDS011;10947;50.834;15.782;2022-12-10T00:06:24;87.20;;;35.47;;
21571;SDS011;10947;50.834;15.782;2022-12-10T00:08:51;80.97;;;34.10;;
21571;SDS011;10947;50.834;15.782;2022-12-10T00:11:19;82.80;;;32.27;;
21571;SDS011;10947;50.834;15.782;2022-12-10T00:13:46;85.50;;;35.00;;
21571;SDS011;10947;50.834;15.782;2022-12-10T00:16:14;82.50;;;34.57;;
21571;SDS011;10947;50.834;15.782;2022-12-10T00:18:41;79.30;;;34.50;;
21571;SDS011;10947;50.834;15.782;2022-12-10T00:21:09;86.93;;;35.77;;
21571;SDS011;10947;50.834;15.782;2022-12-10T00:23:36;94.50;;;36.60;;
21571;SDS011;10947;50.834;15.782;2022-12-10T00:26:11;88.13;;;34.90;;
21571;SDS011;10947;50.834;15.782;2022-12-10T00:28:39;85.87;;;34.70;;
21571;SDS011;10947;50.834;15.782;2022-12-10T00:31:08;82.40;;;33.00;;
21571;SDS011;10947;50.834;15.782;2022-12-10T00:33:35;110.23;;;38.97;;
21571;SDS011;10947;50.834;15.782;2022-12-10T00:36:03;90.17;;;35.87;;
21571;SDS011;10947;50.834;15.782;2022-12-10T00:38:30;117.43;;;39.37;;
21571;SDS011;10947;50.834;15.782;2022-12-10T00:40:57;104.70;;;35.40;;
21571;SDS011;10947;50.834;15.782;2022-12-10T00:43:23;114.37;;;39.50;;
21571;SDS011;10947;50.834;15.782;2022-12-10T00:45:50;109.27;;;37.43;;
21571;SDS011;10947;50.834;15.782;2022-12-10T00:48:17;124.10;;;35.50;;
21571;SDS011;10947;50.834;15.782;2022-12-10T00:50:44;129.50;;;36.43;;
21571;SDS011;10947;50.834;15.782;2022-12-10T00:53:11;108.03;;;37.47;;
21571;SDS011;10947;50.834;15.782;2022-12-10T00:55:37;115.37;;;37.80;;
21571;SDS011;10947;50.834;15.782;2022-12-10T00:58:04;112.87;;;35.30;;
21571;SDS011;10947;50.834;15.782;2022-12-10T01:00:31;119.63;;;38.80;;
21571;SDS011;10947;50.834;15.782;2022-12-10T01:02:57;123.70;;;33.17;;
21571;SDS011;10947;50.834;15.782;2022-12-10T01:05:24;142.57;;;38.60;;
21571;SDS011;10947;50.834;15.782;2022-12-10T01:07:51;123.77;;;35.57;;
21571;SDS011;10947;50.834;15.782;2022-12-10T01:10:18;121.77;;;35.27;;
21571;SDS011;10947;50.834;15.782;2022-12-10T01:12:45;149.93;;;34.07;;
21571;SDS011;10947;50.834;15.782;2022-12-10T01:15:12;131.80;;;32.03;;
21571;SDS011;10947;50.834;15.782;2022-12-10T01:17:39;119.83;;;34.10;;
21571;SDS011;10947;50.834;15.782;2022-12-10T01:20:05;165.33;;;34.73;;
21571;SDS011;10947;50.834;15.782;2022-12-10T01:22:32;116.53;;;32.50;;
21571;SDS011;10947;50.834;15.782;2022-12-10T01:24:59;144.90;;;36.03;;
21571;SDS011;10947;50.834;15.782;2022-12-10T01:27:26;152.37;;;33.03;;
21571;SDS011;10947;50.834;15.782;2022-12-10T01:29:54;83.43;;;25.13;;
21571;SDS011;10947;50.834;15.782;2022-12-10T01:32:21;142.27;;;34.93;;
21571;SDS011;10947;50.834;15.782;2022-12-10T01:34:48;139.43;;;35.17;;
21571;SDS011;10947;50.834;15.782;2022-12-10T01:37:15;111.83;;;31.40;;
21571;SDS011;10947;50.834;15.782;2022-12-10T01:39:41;140.10;;;32.17;;
21571;SDS011;10947;50.834;15.782;2022-12-10T01:42:08;112.90;;;32.27;;
21571;SDS011;10947;50.834;15.782;2022-12-10T01:47:09;128.20;;;34.37;;
21571;SDS011;10947;50.834;15.782;2022-12-10T01:49:38;151.33;;;34.93;;
21571;SDS011;10947;50.834;15.782;2022-12-10T01:52:07;109.83;;;30.60;;
21571;SDS011;10947;50.834;15.782;2022-12-10T01:54:36;123.63;;;34.03;;
21571;SDS011;10947;50.834;15.782;2022-12-10T01:57:16;135.33;;;34.43;;
21571;SDS011;10947;50.834;15.782;2022-12-10T01:59:45;115.73;;;34.57;;
21571;SDS011;10947;50.834;15.782;2022-12-10T02:17:41;91.23;;;29.63;;
21571;SDS011;10947;50.834;15.782;2022-12-10T02:20:19;100.97;;;30.40;;
21571;SDS011;10947;50.834;15.782;2022-12-10T02:22:57;97.40;;;31.83;;
21571;SDS011;10947;50.834;15.782;2022-12-10T02:25:34;82.13;;;27.17;;
21571;SDS011;10947;50.834;15.782;2022-12-10T02:28:30;83.47;;;29.40;;
21571;SDS011;10947;50.834;15.782;2022-12-10T02:30:50;89.23;;;30.90;;
21571;SDS011;10947;50.834;15.782;2022-12-10T02:33:17;83.37;;;27.20;;
21571;SDS011;10947;50.834;15.782;2022-12-10T02:35:45;88.93;;;29.20;;
21571;SDS011;10947;50.834;15.782;2022-12-10T02:38:23;88.80;;;29.90;;
21571;SDS011;10947;50.834;15.782;2022-12-10T02:40:54;91.00;;;28.40;;
21571;SDS011;10947;50.834;15.782;2022-12-10T02:43:23;86.83;;;30.10;;
21571;SDS011;10947;50.834;15.782;2022-12-10T02:45:52;91.73;;;28.97;;
21571;SDS011;10947;50.834;15.782;2022-12-10T02:48:21;86.27;;;28.20;;
21571;SDS011;10947;50.834;15.782;2022-12-10T02:50:49;77.83;;;28.07;;
21571;SDS011;10947;50.834;15.782;2022-12-10T02:53:16;84.90;;;27.93;;
21571;SDS011;10947;50.834;15.782;2022-12-10T02:55:49;76.43;;;26.13;;
21571;SDS011;10947;50.834;15.782;2022-12-10T03:00:57;80.83;;;27.27;;
21571;SDS011;10947;50.834;15.782;2022-12-10T03:03:28;77.63;;;28.47;;
21571;SDS011;10947;50.834;15.782;2022-12-10T03:08:45;78.83;;;27.03;;
21571;SDS011;10947;50.834;15.782;2022-12-10T03:11:14;68.10;;;23.93;;
21571;SDS011;10947;50.834;15.782;2022-12-10T03:16:08;73.67;;;26.73;;
21571;SDS011;10947;50.834;15.782;2022-12-10T03:18:35;73.53;;;27.83;;
21571;SDS011;10947;50.834;15.782;2022-12-10T03:21:05;74.07;;;26.30;;
21571;SDS011;10947;50.834;15.782;2022-12-10T03:23:33;72.63;;;26.27;;
21571;SDS011;10947;50.834;15.782;2022-12-10T03:26:01;72.23;;;26.87;;
21571;SDS011;10947;50.834;15.782;2022-12-10T03:28:28;70.50;;;27.30;;
21571;SDS011;10947;50.834;15.782;2022-12-10T03:30:58;68.67;;;24.47;;
21571;SDS011;10947;50.834;15.782;2022-12-10T03:33:24;80.57;;;27.57;;
21571;SDS011;10947;50.834;15.782;2022-12-10T03:35:51;74.73;;;25.30;;
21571;SDS011;10947;50.834;15.782;2022-12-10T03:38:18;75.03;;;25.63;;
21571;SDS011;10947;50.834;15.782;2022-12-10T03:40:45;70.77;;;25.33;;
21571;SDS011;10947;50.834;15.782;2022-12-10T03:43:12;58.87;;;22.23;;
21571;SDS011;10947;50.834;15.782;2022-12-10T03:45:39;58.70;;;22.67;;
21571;SDS011;10947;50.834;15.782;2022-12-10T03:48:06;52.20;;;22.10;;
21571;SDS011;10947;50.834;15.782;2022-12-10T03:50:33;58.97;;;23.93;;
21571;SDS011;10947;50.834;15.782;2022-12-10T03:53:00;60.77;;;23.73;;
21571;SDS011;10947;50.834;15.782;2022-12-10T03:55:26;64.23;;;23.70;;
21571;SDS011;10947;50.834;15.782;2022-12-10T03:57:54;54.90;;;22.27;;
21571;SDS011;10947;50.834;15.782;2022-12-10T04:00:20;57.73;;;22.40;;
21571;SDS011;10947;50.834;15.782;2022-12-10T04:02:47;60.57;;;23.33;;
21571;SDS011;10947;50.834;15.782;2022-12-10T04:05:14;59.07;;;23.27;;
21571;SDS011;10947;50.834;15.782;2022-12-10T04:07:41;56.60;;;21.73;;
21571;SDS011;10947;50.834;15.782;2022-12-10T04:10:08;53.90;;;22.33;;
21571;SDS011;10947;50.834;15.782;2022-12-10T04:12:34;48.40;;;19.20;;
21571;SDS011;10947;50.834;15.782;2022-12-10T04:15:01;51.37;;;20.17;;
21571;SDS011;10947;50.834;15.782;2022-12-10T04:17:46;48.93;;;19.80;;
21571;SDS011;10947;50.834;15.782;2022-12-10T04:20:13;47.63;;;17.97;;
21571;SDS011;10947;50.834;15.782;2022-12-10T04:22:59;53.10;;;20.43;;
21571;SDS011;10947;50.834;15.782;2022-12-10T04:25:44;43.20;;;19.53;;
21571;SDS011;10947;50.834;15.782;2022-12-10T04:28:29;40.83;;;18.23;;
21571;SDS011;10947;50.834;15.782;2022-12-10T04:30:56;47.60;;;18.03;;
21571;SDS011;10947;50.834;15.782;2022-12-10T04:33:23;56.43;;;20.83;;
21571;SDS011;10947;50.834;15.782;2022-12-10T04:35:50;44.40;;;19.13;;
21571;SDS011;10947;50.834;15.782;2022-12-10T04:38:16;46.37;;;18.63;;
21571;SDS011;10947;50.834;15.782;2022-12-10T04:40:43;45.57;;;18.50;;
21571;SDS011;10947;50.834;15.782;2022-12-10T04:43:10;44.13;;;19.13;;
21571;SDS011;10947;50.834;15.782;2022-12-10T04:45:36;46.43;;;20.27;;
21571;SDS011;10947;50.834;15.782;2022-12-10T04:48:05;43.53;;;18.50;;
21571;SDS011;10947;50.834;15.782;2022-12-10T04:50:32;40.17;;;18.47;;
21571;SDS011;10947;50.834;15.782;2022-12-10T04:52:58;46.47;;;19.57;;
21571;SDS011;10947;50.834;15.782;2022-12-10T04:55:25;42.93;;;18.73;;
21571;SDS011;10947;50.834;15.782;2022-12-10T04:57:52;43.67;;;17.90;;
21571;SDS011;10947;50.834;15.782;2022-12-10T05:00:18;48.47;;;19.47;;
21571;SDS011;10947;50.834;15.782;2022-12-10T05:02:47;49.90;;;20.00;;
21571;SDS011;10947;50.834;15.782;2022-12-10T05:05:14;46.20;;;18.87;;
21571;SDS011;10947;50.834;15.782;2022-12-10T05:07:41;54.73;;;20.37;;
21571;SDS011;10947;50.834;15.782;2022-12-10T05:10:07;48.07;;;19.17;;
21571;SDS011;10947;50.834;15.782;2022-12-10T05:12:34;45.27;;;19.57;;
21571;SDS011;10947;50.834;15.782;2022-12-10T05:15:01;53.17;;;19.83;;
21571;SDS011;10947;50.834;15.782;2022-12-10T05:17:27;41.20;;;17.33;;
21571;SDS011;10947;50.834;15.782;2022-12-10T05:19:54;48.53;;;19.73;;
21571;SDS011;10947;50.834;15.782;2022-12-10T05:22:21;44.97;;;17.87;;
21571;SDS011;10947;50.834;15.782;2022-12-10T05:25:07;41.47;;;18.03;;
21571;SDS011;10947;50.834;15.782;2022-12-10T05:27:33;48.00;;;19.80;;
21571;SDS011;10947;50.834;15.782;2022-12-10T05:30:00;49.57;;;20.00;;
21571;SDS011;10947;50.834;15.782;2022-12-10T05:32:27;42.57;;;18.97;;
21571;SDS011;10947;50.834;15.782;2022-12-10T05:34:54;42.53;;;18.17;;
21571;SDS011;10947;50.834;15.782;2022-12-10T05:37:21;38.73;;;18.00;;
21571;SDS011;10947;50.834;15.782;2022-12-10T05:39:48;46.60;;;17.90;;
21571;SDS011;10947;50.834;15.782;2022-12-10T05:42:14;47.63;;;19.80;;
21571;SDS011;10947;50.834;15.782;2022-12-10T05:44:41;46.73;;;19.13;;
21571;SDS011;10947;50.834;15.782;2022-12-10T05:47:08;47.57;;;19.13;;
21571;SDS011;10947;50.834;15.782;2022-12-10T05:49:35;46.93;;;18.93;;
21571;SDS011;10947;50.834;15.782;2022-12-10T05:52:02;44.30;;;20.03;;
21571;SDS011;10947;50.834;15.782;2022-12-10T05:54:29;41.87;;;19.00;;
21571;SDS011;10947;50.834;15.782;2022-12-10T05:56:55;43.70;;;19.87;;
21571;SDS011;10947;50.834;15.782;2022-12-10T05:59:22;36.67;;;17.23;;
21571;SDS011;10947;50.834;15.782;2022-12-10T06:01:49;41.90;;;16.60;;
21571;SDS011;10947;50.834;15.782;2022-12-10T06:04:16;46.63;;;18.60;;
21571;SDS011;10947;50.834;15.782;2022-12-10T06:06:42;44.97;;;19.30;;
21571;SDS011;10947;50.834;15.782;2022-12-10T06:09:11;41.20;;;18.03;;
21571;SDS011;10947;50.834;15.782;2022-12-10T06:11:38;43.07;;;17.70;;
21571;SDS011;10947;50.834;15.782;2022-12-10T06:14:05;45.40;;;20.13;;
21571;SDS011;10947;50.834;15.782;2022-12-10T06:16:31;44.30;;;20.30;;
21571;SDS011;10947;50.834;15.782;2022-12-10T06:18:58;40.17;;;19.00;;
21571;SDS011;10947;50.834;15.782;2022-12-10T06:21:25;41.83;;;17.20;;
21571;SDS011;10947;50.834;15.782;2022-12-10T06:23:52;43.13;;;18.40;;
21571;SDS011;10947;50.834;15.782;2022-12-10T06:26:21;41.70;;;18.93;;
21571;SDS011;10947;50.834;15.782;2022-12-10T06:28:48;43.80;;;18.13;;
21571;SDS011;10947;50.834;15.782;2022-12-10T06:31:15;36.00;;;16.50;;
21571;SDS011;10947;50.834;15.782;2022-12-10T06:33:43;40.70;;;19.33;;
21571;SDS011;10947;50.834;15.782;2022-12-10T06:36:10;43.27;;;20.47;;
21571;SDS011;10947;50.834;15.782;2022-12-10T06:38:38;55.43;;;27.70;;
21571;SDS011;10947;50.834;15.782;2022-12-10T06:41:08;44.30;;;21.33;;
21571;SDS011;10947;50.834;15.782;2022-12-10T06:43:35;39.57;;;17.50;;
21571;SDS011;10947;50.834;15.782;2022-12-10T06:46:05;39.80;;;18.87;;
21571;SDS011;10947;50.834;15.782;2022-12-10T06:48:32;34.00;;;15.23;;
21571;SDS011;10947;50.834;15.782;2022-12-10T06:50:59;34.67;;;15.67;;
21571;SDS011;10947;50.834;15.782;2022-12-10T06:53:26;37.37;;;17.33;;
21571;SDS011;10947;50.834;15.782;2022-12-10T06:55:53;33.93;;;16.67;;
21571;SDS011;10947;50.834;15.782;2022-12-10T06:58:19;36.57;;;15.93;;
21571;SDS011;10947;50.834;15.782;2022-12-10T07:00:46;30.70;;;14.83;;
21571;SDS011;10947;50.834;15.782;2022-12-10T07:03:13;36.87;;;16.43;;
21571;SDS011;10947;50.834;15.782;2022-12-10T07:05:39;32.60;;;16.17;;
21571;SDS011;10947;50.834;15.782;2022-12-10T07:08:06;33.13;;;15.97;;
21571;SDS011;10947;50.834;15.782;2022-12-10T07:10:33;32.07;;;16.37;;
21571;SDS011;10947;50.834;15.782;2022-12-10T07:13:00;33.17;;;15.57;;
21571;SDS011;10947;50.834;15.782;2022-12-10T07:15:26;34.93;;;16.17;;
21571;SDS011;10947;50.834;15.782;2022-12-10T07:17:54;36.30;;;16.57;;
21571;SDS011;10947;50.834;15.782;2022-12-10T07:20:20;29.13;;;14.77;;
21571;SDS011;10947;50.834;15.782;2022-12-10T07:22:47;33.93;;;16.13;;
21571;SDS011;10947;50.834;15.782;2022-12-10T07:25:14;33.03;;;14.63;;
21571;SDS011;10947;50.834;15.782;2022-12-10T07:27:40;25.77;;;13.27;;
21571;SDS011;10947;50.834;15.782;2022-12-10T07:30:07;27.27;;;14.30;;
21571;SDS011;10947;50.834;15.782;2022-12-10T07:32:34;36.03;;;19.87;;
21571;SDS011;10947;50.834;15.782;2022-12-10T07:35:01;27.27;;;14.90;;
21571;SDS011;10947;50.834;15.782;2022-12-10T07:37:27;29.60;;;16.43;;
21571;SDS011;10947;50.834;15.782;2022-12-10T07:39:54;29.10;;;14.90;;
21571;SDS011;10947;50.834;15.782;2022-12-10T07:42:21;28.77;;;15.80;;
21571;SDS011;10947;50.834;15.782;2022-12-10T07:44:48;33.47;;;16.13;;
21571;SDS011;10947;50.834;15.782;2022-12-10T07:47:15;31.40;;;14.97;;
21571;SDS011;10947;50.834;15.782;2022-12-10T07:49:42;26.47;;;13.47;;
21571;SDS011;10947;50.834;15.782;2022-12-10T07:52:08;29.47;;;14.43;;
21571;SDS011;10947;50.834;15.782;2022-12-10T07:54:36;28.70;;;14.20;;
21571;SDS011;10947;50.834;15.782;2022-12-10T07:57:02;30.00;;;16.30;;
21571;SDS011;10947;50.834;15.782;2022-12-10T07:59:29;27.90;;;15.00;;
21571;SDS011;10947;50.834;15.782;2022-12-10T08:01:56;30.03;;;15.50;;
21571;SDS011;10947;50.834;15.782;2022-12-10T08:04:23;32.90;;;14.37;;
21571;SDS011;10947;50.834;15.782;2022-12-10T08:06:50;29.57;;;14.03;;
21571;SDS011;10947;50.834;15.782;2022-12-10T08:09:20;26.50;;;14.67;;
21571;SDS011;10947;50.834;15.782;2022-12-10T08:11:47;32.00;;;15.33;;
21571;SDS011;10947;50.834;15.782;2022-12-10T08:14:13;38.60;;;17.37;;
21571;SDS011;10947;50.834;15.782;2022-12-10T08:16:40;37.33;;;17.47;;
21571;SDS011;10947;50.834;15.782;2022-12-10T08:19:08;35.40;;;16.70;;
21571;SDS011;10947;50.834;15.782;2022-12-10T08:21:35;38.73;;;18.27;;
21571;SDS011;10947;50.834;15.782;2022-12-10T08:24:01;36.10;;;17.00;;
21571;SDS011;10947;50.834;15.782;2022-12-10T08:26:30;34.40;;;16.73;;
21571;SDS011;10947;50.834;15.782;2022-12-10T08:28:57;32.30;;;14.83;;
21571;SDS011;10947;50.834;15.782;2022-12-10T08:31:25;29.17;;;13.73;;
21571;SDS011;10947;50.834;15.782;2022-12-10T08:33:52;32.23;;;15.27;;
21571;SDS011;10947;50.834;15.782;2022-12-10T08:36:19;29.17;;;14.13;;
21571;SDS011;10947;50.834;15.782;2022-12-10T08:38:46;28.07;;;14.70;;
21571;SDS011;10947;50.834;15.782;2022-12-10T08:41:20;28.67;;;13.90;;
21571;SDS011;10947;50.834;15.782;2022-12-10T08:43:47;26.20;;;12.37;;
21571;SDS011;10947;50.834;15.782;2022-12-10T08:46:15;34.93;;;15.13;;
21571;SDS011;10947;50.834;15.782;2022-12-10T08:48:41;30.80;;;15.27;;
21571;SDS011;10947;50.834;15.782;2022-12-10T08:51:09;35.97;;;16.77;;
21571;SDS011;10947;50.834;15.782;2022-12-10T08:53:37;27.63;;;13.87;;
21571;SDS011;10947;50.834;15.782;2022-12-10T08:56:03;33.03;;;16.50;;
21571;SDS011;10947;50.834;15.782;2022-12-10T08:58:30;32.93;;;15.47;;
21571;SDS011;10947;50.834;15.782;2022-12-10T09:00:57;29.53;;;14.17;;
21571;SDS011;10947;50.834;15.782;2022-12-10T09:03:24;40.70;;;18.97;;
21571;SDS011;10947;50.834;15.782;2022-12-10T09:05:51;30.20;;;15.43;;
21571;SDS011;10947;50.834;15.782;2022-12-10T09:08:18;27.23;;;13.90;;
21571;SDS011;10947;50.834;15.782;2022-12-10T09:10:44;29.33;;;13.27;;
21571;SDS011;10947;50.834;15.782;2022-12-10T09:13:11;27.33;;;13.93;;
21571;SDS011;10947;50.834;15.782;2022-12-10T09:15:38;30.40;;;14.00;;
21571;SDS011;10947;50.834;15.782;2022-12-10T09:18:05;27.87;;;14.13;;
21571;SDS011;10947;50.834;15.782;2022-12-10T09:20:31;24.97;;;12.27;;
21571;SDS011;10947;50.834;15.782;2022-12-10T09:22:58;27.60;;;13.47;;
21571;SDS011;10947;50.834;15.782;2022-12-10T09:25:25;29.43;;;14.67;;
21571;SDS011;10947;50.834;15.782;2022-12-10T09:27:51;29.53;;;16.17;;
21571;SDS011;10947;50.834;15.782;2022-12-10T09:30:18;37.80;;;15.70;;
21571;SDS011;10947;50.834;15.782;2022-12-10T09:32:45;42.13;;;18.27;;
21571;SDS011;10947;50.834;15.782;2022-12-10T09:35:11;35.40;;;17.30;;
21571;SDS011;10947;50.834;15.782;2022-12-10T09:37:38;27.17;;;12.30;;
21571;SDS011;10947;50.834;15.782;2022-12-10T09:40:05;29.53;;;13.90;;
21571;SDS011;10947;50.834;15.782;2022-12-10T09:45:05;30.40;;;14.43;;
21571;SDS011;10947;50.834;15.782;2022-12-10T09:47:45;42.77;;;18.77;;
21571;SDS011;10947;50.834;15.782;2022-12-10T09:51:16;27.70;;;14.13;;
21571;SDS011;10947;50.834;15.782;2022-12-10T09:53:10;29.27;;;14.63;;
21571;SDS011;10947;50.834;15.782;2022-12-10T09:55:40;34.23;;;16.43;;
21571;SDS011;10947;50.834;15.782;2022-12-10T09:58:08;35.80;;;16.67;;
21571;SDS011;10947;50.834;15.782;2022-12-10T10:00:39;29.40;;;14.53;;
21571;SDS011;10947;50.834;15.782;2022-12-10T10:03:11;39.63;;;19.23;;
21571;SDS011;10947;50.834;15.782;2022-12-10T10:05:48;38.07;;;19.60;;
21571;SDS011;10947;50.834;15.782;2022-12-10T10:10:45;29.00;;;14.50;;
21571;SDS011;10947;50.834;15.782;2022-12-10T10:13:18;31.40;;;15.33;;
21571;SDS011;10947;50.834;15.782;2022-12-10T10:15:50;35.03;;;16.10;;
21571;SDS011;10947;50.834;15.782;2022-12-10T10:18:23;29.03;;;14.57;;
21571;SDS011;10947;50.834;15.782;2022-12-10T10:20:55;47.27;;;22.03;;
21571;SDS011;10947;50.834;15.782;2022-12-10T10:23:22;40.33;;;18.90;;
21571;SDS011;10947;50.834;15.782;2022-12-10T10:25:49;35.93;;;18.10;;
21571;SDS011;10947;50.834;15.782;2022-12-10T10:28:20;31.00;;;15.47;;
21571;SDS011;10947;50.834;15.782;2022-12-10T10:30:47;33.47;;;15.80;;
21571;SDS011;10947;50.834;15.782;2022-12-10T10:33:15;35.13;;;16.80;;
21571;SDS011;10947;50.834;15.782;2022-12-10T10:35:43;37.63;;;16.90;;
21571;SDS011;10947;50.834;15.782;2022-12-10T10:38:28;32.03;;;15.67;;
21571;SDS011;10947;50.834;15.782;2022-12-10T10:40:59;46.27;;;19.53;;
21571;SDS011;10947;50.834;15.782;2022-12-10T10:43:26;34.67;;;15.47;;
21571;SDS011;10947;50.834;15.782;2022-12-10T10:45:54;42.67;;;19.07;;
21571;SDS011;10947;50.834;15.782;2022-12-10T10:48:24;40.53;;;18.40;;
21571;SDS011;10947;50.834;15.782;2022-12-10T10:50:55;44.33;;;18.13;;
21571;SDS011;10947;50.834;15.782;2022-12-10T10:53:26;34.13;;;14.93;;
21571;SDS011;10947;50.834;15.782;2022-12-10T10:55:55;47.50;;;20.53;;
21571;SDS011;10947;50.834;15.782;2022-12-10T10:58:23;45.73;;;20.47;;
21571;SDS011;10947;50.834;15.782;2022-12-10T11:00:54;42.33;;;20.37;;
21571;SDS011;10947;50.834;15.782;2022-12-10T11:03:21;49.30;;;20.87;;
21571;SDS011;10947;50.834;15.782;2022-12-10T11:05:47;40.83;;;19.23;;
21571;SDS011;10947;50.834;15.782;2022-12-10T11:08:18;41.30;;;19.93;;
21571;SDS011;10947;50.834;15.782;2022-12-10T11:11:01;47.80;;;20.43;;
21571;SDS011;10947;50.834;15.782;2022-12-10T11:13:30;52.97;;;23.77;;
21571;SDS011;10947;50.834;15.782;2022-12-10T11:18:43;47.77;;;19.87;;
21571;SDS011;10947;50.834;15.782;2022-12-10T11:21:18;46.93;;;20.50;;
21571;SDS011;10947;50.834;15.782;2022-12-10T11:23:48;53.20;;;23.23;;
21571;SDS011;10947;50.834;15.782;2022-12-10T11:34:18;44.37;;;20.73;;
21571;SDS011;10947;50.834;15.782;2022-12-10T11:36:49;46.23;;;21.17;;
21571;SDS011;10947;50.834;15.782;2022-12-10T11:44:42;63.33;;;28.20;;
21571;SDS011;10947;50.834;15.782;2022-12-10T11:47:23;53.17;;;23.87;;
21571;SDS011;10947;50.834;15.782;2022-12-10T12:03:25;52.47;;;22.77;;
21571;SDS011;10947;50.834;15.782;2022-12-10T12:08:38;52.73;;;24.27;;
21571;SDS011;10947;50.834;15.782;2022-12-10T12:11:11;47.43;;;22.00;;
21571;SDS011;10947;50.834;15.782;2022-12-10T12:13:47;50.13;;;21.70;;
21571;SDS011;10947;50.834;15.782;2022-12-10T12:16:18;41.77;;;19.80;;
21571;SDS011;10947;50.834;15.782;2022-12-10T12:18:54;37.70;;;16.80;;
21571;SDS011;10947;50.834;15.782;2022-12-10T12:21:21;38.93;;;19.07;;
21571;SDS011;10947;50.834;15.782;2022-12-10T12:26:49;42.77;;;19.27;;
21571;SDS011;10947;50.834;15.782;2022-12-10T12:31:42;57.90;;;23.87;;
21571;SDS011;10947;50.834;15.782;2022-12-10T12:34:15;47.03;;;20.73;;
21571;SDS011;10947;50.834;15.782;2022-12-10T12:36:43;42.07;;;20.13;;
21571;SDS011;10947;50.834;15.782;2022-12-10T12:39:32;45.87;;;21.13;;
21571;SDS011;10947;50.834;15.782;2022-12-10T12:41:59;54.73;;;22.57;;
21571;SDS011;10947;50.834;15.782;2022-12-10T12:46:58;46.10;;;21.77;;
21571;SDS011;10947;50.834;15.782;2022-12-10T12:49:29;49.43;;;22.13;;
21571;SDS011;10947;50.834;15.782;2022-12-10T12:52:01;47.97;;;21.87;;
21571;SDS011;10947;50.834;15.782;2022-12-10T12:54:28;49.73;;;21.20;;
21571;SDS011;10947;50.834;15.782;2022-12-10T12:57:03;48.57;;;20.83;;
21571;SDS011;10947;50.834;15.782;2022-12-10T13:04:35;47.43;;;21.27;;
21571;SDS011;10947;50.834;15.782;2022-12-10T13:09:45;39.63;;;17.67;;
21571;SDS011;10947;50.834;15.782;2022-12-10T13:20:28;41.00;;;16.90;;
21571;SDS011;10947;50.834;15.782;2022-12-10T13:25:42;50.77;;;22.27;;
21571;SDS011;10947;50.834;15.782;2022-12-10T13:36:21;68.50;;;26.67;;
21571;SDS011;10947;50.834;15.782;2022-12-10T13:44:48;67.83;;;27.43;;
21571;SDS011;10947;50.834;15.782;2022-12-10T13:50:05;65.93;;;24.60;;
21571;SDS011;10947;50.834;15.782;2022-12-10T13:52:35;61.57;;;26.03;;
21571;SDS011;10947;50.834;15.782;2022-12-10T14:00:41;71.37;;;25.77;;
21571;SDS011;10947;50.834;15.782;2022-12-10T14:08:31;82.57;;;31.13;;
21571;SDS011;10947;50.834;15.782;2022-12-10T14:10:59;73.80;;;27.97;;
21571;SDS011;10947;50.834;15.782;2022-12-10T14:13:59;71.63;;;24.73;;
21571;SDS011;10947;50.834;15.782;2022-12-10T14:16:20;68.13;;;27.57;;
21571;SDS011;10947;50.834;15.782;2022-12-10T14:18:52;67.70;;;25.17;;
21571;SDS011;10947;50.834;15.782;2022-12-10T14:21:20;65.40;;;24.73;;
21571;SDS011;10947;50.834;15.782;2022-12-10T14:23:49;64.40;;;23.27;;
21571;SDS011;10947;50.834;15.782;2022-12-10T14:26:21;63.60;;;25.07;;
21571;SDS011;10947;50.834;15.782;2022-12-10T14:28:56;71.37;;;28.47;;
21571;SDS011;10947;50.834;15.782;2022-12-10T14:31:33;75.90;;;28.70;;
21571;SDS011;10947;50.834;15.782;2022-12-10T14:34:08;84.83;;;29.33;;
21571;SDS011;10947;50.834;15.782;2022-12-10T14:36:38;76.20;;;27.63;;
21571;SDS011;10947;50.834;15.782;2022-12-10T14:39:25;69.90;;;25.93;;
21571;SDS011;10947;50.834;15.782;2022-12-10T14:41:55;67.13;;;27.50;;
21571;SDS011;10947;50.834;15.782;2022-12-10T14:44:22;78.07;;;27.73;;
21571;SDS011;10947;50.834;15.782;2022-12-10T14:46:49;74.40;;;28.57;;
21571;SDS011;10947;50.834;15.782;2022-12-10T14:49:17;75.97;;;27.50;;
21571;SDS011;10947;50.834;15.782;2022-12-10T14:51:45;77.93;;;29.87;;
21571;SDS011;10947;50.834;15.782;2022-12-10T14:54:26;65.17;;;25.40;;
21571;SDS011;10947;50.834;15.782;2022-12-10T14:56:54;82.47;;;30.13;;
21571;SDS011;10947;50.834;15.782;2022-12-10T14:59:26;71.03;;;22.83;;
21571;SDS011;10947;50.834;15.782;2022-12-10T15:01:56;62.93;;;24.30;;
21571;SDS011;10947;50.834;15.782;2022-12-10T15:04:27;81.10;;;29.93;;
21571;SDS011;10947;50.834;15.782;2022-12-10T15:06:57;75.30;;;26.53;;
21571;SDS011;10947;50.834;15.782;2022-12-10T15:09:25;80.00;;;28.90;;
21571;SDS011;10947;50.834;15.782;2022-12-10T15:11:55;71.13;;;28.73;;
21571;SDS011;10947;50.834;15.782;2022-12-10T15:14:24;69.87;;;26.03;;
21571;SDS011;10947;50.834;15.782;2022-12-10T15:16:52;76.67;;;29.20;;
21571;SDS011;10947;50.834;15.782;2022-12-10T15:19:23;73.03;;;27.27;;
21571;SDS011;10947;50.834;15.782;2022-12-10T15:21:52;73.90;;;28.47;;
21571;SDS011;10947;50.834;15.782;2022-12-10T15:24:32;72.03;;;27.00;;
21571;SDS011;10947;50.834;15.782;2022-12-10T15:27:02;74.13;;;26.97;;
21571;SDS011;10947;50.834;15.782;2022-12-10T15:29:41;69.30;;;27.30;;
21571;SDS011;10947;50.834;15.782;2022-12-10T15:32:13;61.77;;;25.80;;
21571;SDS011;10947;50.834;15.782;2022-12-10T15:34:41;75.53;;;27.57;;
21571;SDS011;10947;50.834;15.782;2022-12-10T15:37:16;74.73;;;28.63;;
21571;SDS011;10947;50.834;15.782;2022-12-10T15:39:52;75.20;;;27.87;;
21571;SDS011;10947;50.834;15.782;2022-12-10T15:42:28;79.90;;;30.50;;
21571;SDS011;10947;50.834;15.782;2022-12-10T15:44:59;66.97;;;24.07;;
21571;SDS011;10947;50.834;15.782;2022-12-10T15:47:28;73.23;;;28.10;;
21571;SDS011;10947;50.834;15.782;2022-12-10T15:49:56;74.53;;;28.50;;
21571;SDS011;10947;50.834;15.782;2022-12-10T15:52:27;86.83;;;29.00;;
21571;SDS011;10947;50.834;15.782;2022-12-10T15:54:55;75.20;;;27.77;;
21571;SDS011;10947;50.834;15.782;2022-12-10T15:57:24;70.33;;;27.97;;
21571;SDS011;10947;50.834;15.782;2022-12-10T15:59:52;74.13;;;27.67;;
21571;SDS011;10947;50.834;15.782;2022-12-10T16:04:55;81.27;;;27.13;;
21571;SDS011;10947;50.834;15.782;2022-12-10T16:07:22;79.90;;;30.33;;
21571;SDS011;10947;50.834;15.782;2022-12-10T16:09:50;88.90;;;34.77;;
21571;SDS011;10947;50.834;15.782;2022-12-10T16:12:17;84.97;;;31.00;;
21571;SDS011;10947;50.834;15.782;2022-12-10T16:14:52;87.27;;;30.50;;
21571;SDS011;10947;50.834;15.782;2022-12-10T16:17:26;79.87;;;31.20;;
21571;SDS011;10947;50.834;15.782;2022-12-10T16:19:56;77.60;;;28.10;;